createdAt,value
2024-04-01T00:00:45.234Z,99968.93564513559
2024-04-01T00:03:42.807Z,99975.37682474329
2024-04-01T00:06:41.342Z,99974.57089501314
2024-04-01T00:09:38.918Z,99968.88116164696
2024-04-01T00:12:36.469Z,99963.24453451768
2024-04-01T00:15:34.044Z,99957.0552065214
2024-04-01T00:18:31.590Z,99963.91248084289
2024-04-01T00:21:30.151Z,99966.86065025578
2024-04-01T00:24:30.697Z,99959.80227384993
2024-04-01T00:27:28.237Z,99967.98852403191
2024-04-01T00:30:25.773Z,99969.51310343851
2024-04-01T00:33:23.423Z,99979.84095382762
2024-04-01T00:36:22.886Z,99979.95203958065
2024-04-01T00:39:20.476Z,99970.55115503652
2024-04-01T00:42:18.035Z,99971.04482355295
2024-04-01T00:45:15.572Z,99971.22621431592
2024-04-01T00:48:14.135Z,99972.49473805571
2024-04-01T00:51:11.679Z,99973.88893738946
2024-04-01T00:54:09.220Z,99970.86006925598
2024-04-01T00:57:07.781Z,99973.42235611044
2024-04-01T01:00:08.327Z,99972.98693439375
2024-04-01T01:03:07.875Z,99970.05850182715
2024-04-01T01:06:09.444Z,99964.95952985295
2024-04-01T01:09:07.011Z,99967.52217749691
2024-04-01T01:12:05.539Z,99964.13138362869
2024-04-01T01:15:04.129Z,99962.52256425539
2024-04-01T01:18:01.669Z,99963.53432561272
2024-04-01T01:20:59.212Z,99959.15879679294
2024-04-01T01:23:56.759Z,99964.30965317045
2024-04-01T01:26:56.354Z,99962.08667898762
2024-04-01T01:29:53.859Z,99952.73960303649
2024-04-01T01:32:53.427Z,99953.56020410564
2024-04-01T01:35:53.968Z,99951.41231476839
2024-04-01T01:38:52.524Z,99950.0652806267
2024-04-01T01:41:50.095Z,99952.60014052896
2024-04-01T01:44:47.694Z,99944.82958079087
2024-04-01T01:47:45.215Z,99943.17999705888
2024-04-01T01:50:42.742Z,99946.3718138868
2024-04-01T01:53:43.331Z,99942.16086586611
2024-04-01T01:56:40.872Z,99941.33495142999
2024-04-01T01:59:38.420Z,99934.72516063815
2024-04-01T02:02:36.992Z,99928.8136818834
2024-04-01T02:05:35.516Z,99923.47724629132
2024-04-01T02:08:33.100Z,99919.04112817706
2024-04-01T02:11:31.630Z,99913.49229388335
2024-04-01T02:14:30.197Z,99914.01137979903
2024-04-01T02:17:28.762Z,99908.83601566896
2024-04-01T02:20:26.318Z,99913.87954954129
2024-04-01T02:23:24.913Z,99918.85199052014
2024-04-01T02:26:22.419Z,99916.23792736631
2024-04-01T02:29:19.951Z,99921.80591899357
2024-04-01T02:32:17.535Z,99925.79225459383
2024-04-01T02:35:15.080Z,99926.36172566374
2024-04-01T02:38:12.632Z,99928.71637955926
2024-04-01T02:41:11.196Z,99920.14671088976
2024-04-01T02:44:08.762Z,99910.4673554532
2024-04-01T02:47:06.323Z,99914.27331994403
2024-04-01T02:50:03.859Z,99923.12603635363
2024-04-01T02:53:03.424Z,99920.14959237062
2024-04-01T02:56:01.008Z,99923.30735289786
2024-04-01T02:59:03.527Z,99918.33569080765
2024-04-01T03:02:01.435Z,99910.98392003609
2024-04-01T03:04:58.653Z,99901.14497102059
2024-04-01T03:07:57.193Z,99899.78740251902
2024-04-01T03:10:58.708Z,99896.33140317388
2024-04-01T03:13:57.341Z,99901.55956410526
2024-04-01T03:16:54.830Z,99898.16675977151
2024-04-01T03:19:52.409Z,99904.790361013
2024-04-01T03:22:49.959Z,99907.41633935709
2024-04-01T03:25:50.546Z,99903.59651644755
2024-04-01T03:28:48.059Z,99900.47057772084
2024-04-01T03:31:45.650Z,99897.78427144293
2024-04-01T03:34:43.171Z,99895.52617539432
2024-04-01T03:37:41.740Z,99884.18869675767
2024-04-01T03:43:48.817Z,99905.4979574849
2024-04-01T03:46:46.351Z,99896.54665977303
2024-04-01T03:49:43.917Z,99905.89031511158
2024-04-01T03:52:42.482Z,99902.8121289656
2024-04-01T03:55:42.020Z,99895.58555181828
2024-04-01T03:58:39.595Z,99898.22401830213
2024-04-01T04:01:37.168Z,99890.82029784785
2024-04-01T04:04:34.703Z,99896.29681688335
2024-04-01T04:07:32.249Z,99894.83240505701
2024-04-01T04:10:29.792Z,99899.10871973174
2024-04-01T04:13:27.361Z,99906.29100165376
2024-04-01T04:16:24.926Z,99908.17071039185
2024-04-01T04:19:26.502Z,99910.24919994181
2024-04-01T04:22:25.033Z,99907.8508771892
2024-04-01T04:25:23.575Z,99907.72030776573
2024-04-01T04:28:21.135Z,99912.39169689122
2024-04-01T04:31:19.686Z,99908.764631327
2024-04-01T04:34:17.254Z,99909.25124121607
2024-04-01T04:37:16.803Z,99903.97465245494
2024-04-01T04:40:15.347Z,99897.53027564632
2024-04-01T04:43:12.924Z,99893.43044972174
2024-04-01T04:46:13.484Z,99900.44144011864
2024-04-01T04:49:11.043Z,99897.71298890698
2024-04-01T04:52:09.580Z,99910.18847893954
2024-04-01T04:55:07.127Z,99905.44386650439
2024-04-01T04:58:04.689Z,99907.1709139863
2024-04-01T05:01:06.237Z,99899.63734479861
2024-04-01T05:04:05.793Z,99898.97826402943
2024-04-01T05:07:03.351Z,99910.58228784727
2024-04-01T05:10:00.891Z,99908.66986408872
2024-04-01T05:12:59.424Z,99908.95140926847
2024-04-01T05:15:57.194Z,99911.41581991351
2024-04-01T05:18:54.563Z,99911.43748555098
2024-04-01T05:21:52.468Z,99917.703749932
2024-04-01T05:24:50.687Z,99915.04425769993
2024-04-01T05:27:48.219Z,99909.52713847936
2024-04-01T05:30:47.773Z,99915.85449729071
2024-04-01T05:33:46.324Z,99913.0141804846
2024-04-01T05:36:43.878Z,99905.98718177479
2024-04-01T05:39:41.438Z,99910.83573326629
2024-04-01T05:42:39.001Z,99903.27076419529
2024-04-01T05:45:36.562Z,99907.23444041728
2024-04-01T05:48:34.096Z,99905.83825781061
2024-04-01T05:51:31.667Z,99908.01512441222
2024-04-01T05:54:30.232Z,99908.70771322263
2024-04-01T05:57:27.782Z,99904.94668768285
2024-04-01T06:00:27.350Z,99910.90304752726
2024-04-01T06:03:26.879Z,99912.31430445524
2024-04-01T06:06:24.448Z,99913.4882401769
2024-04-01T06:09:21.996Z,99917.53181541311
2024-04-01T06:12:19.559Z,99909.05462315361
2024-04-01T06:15:17.146Z,99905.75395358042
2024-04-01T06:18:14.666Z,99913.07750397084
2024-04-01T06:21:12.582Z,99915.5354217112
2024-04-01T06:24:10.789Z,99907.58658637493
2024-04-01T06:27:08.357Z,99903.10746889727
2024-04-01T06:30:05.869Z,99898.58737742707
2024-04-01T06:33:03.434Z,99895.95443691731
2024-04-01T06:36:02.332Z,99898.3909244515
2024-04-01T06:38:59.560Z,99911.17476154679
2024-04-01T06:41:57.111Z,99893.34422724876
2024-04-01T06:44:55.660Z,99894.4150167363
2024-04-01T06:47:53.253Z,99909.51576502
2024-04-01T06:50:50.758Z,99900.82329257668
2024-04-01T06:53:51.340Z,99907.11898735764
2024-04-01T06:56:49.988Z,99908.48574576814
2024-04-01T06:59:47.460Z,99911.04939564058
2024-04-01T07:02:45.021Z,99912.09210449684
2024-04-01T07:05:43.570Z,99909.43809716197
2024-04-01T07:08:41.105Z,99916.85638540117
2024-04-01T07:11:38.663Z,99908.9586795807
2024-04-01T07:14:36.235Z,99913.0550368032
2024-04-01T07:17:34.774Z,99916.76576608473
2024-04-01T07:20:37.641Z,99905.02323733688
2024-04-01T07:23:34.906Z,99909.03598259277
2024-04-01T07:26:32.438Z,99904.84453023
2024-04-01T07:29:29.964Z,99904.52521582009
2024-04-01T07:32:27.552Z,99901.1778505611
2024-04-01T07:35:25.119Z,99903.99918566935
2024-04-01T07:38:22.662Z,99894.6347065375
2024-04-01T07:41:20.222Z,99896.52821009062
2024-04-01T07:44:17.795Z,99893.78811568994
2024-04-01T07:47:15.344Z,99891.6203912187
2024-04-01T07:50:12.927Z,99889.47386140964
2024-04-01T07:53:11.452Z,99893.9819055904
2024-04-01T07:56:08.998Z,99902.04646624193
2024-04-01T07:59:08.573Z,99898.66494893012
2024-04-01T08:02:07.090Z,99899.64029087783
2024-04-01T08:05:06.671Z,99891.54167043275
2024-04-01T08:08:05.196Z,99892.85419265207
2024-04-01T08:11:02.784Z,99886.3893990735
2024-04-01T08:14:00.382Z,99878.8543763497
2024-04-01T08:16:57.852Z,99878.98102359391
2024-04-01T08:19:55.452Z,99890.4163107451
2024-04-01T08:22:53.339Z,99884.80024551348
2024-04-01T08:25:51.537Z,99886.12524362258
2024-04-01T08:28:52.092Z,99884.81339567923
2024-04-01T08:31:49.675Z,99880.92247322417
2024-04-01T08:34:48.224Z,99883.60671406216
2024-04-01T08:37:45.760Z,99881.86832136521
2024-04-01T08:40:47.285Z,99885.81438939013
2024-04-01T08:43:47.829Z,99885.37597680531
2024-04-01T08:46:47.415Z,99883.62858015331
2024-04-01T08:49:51.948Z,99882.75546786387
2024-04-01T08:52:54.494Z,99884.49723378317
2024-04-01T08:55:52.052Z,99882.77105593462
2024-04-01T08:58:50.596Z,99878.81809824126
2024-04-01T09:01:48.163Z,99874.00789936884
2024-04-01T09:04:46.730Z,99877.94722412442
2024-04-01T09:07:48.263Z,99868.75784806888
2024-04-01T09:10:46.228Z,99868.75511153348
2024-04-01T09:13:47.346Z,99862.11088166597
2024-04-01T09:16:44.925Z,99860.7382848198
2024-04-01T09:19:44.475Z,99853.18312685152
2024-04-01T09:22:42.026Z,99859.75522586926
2024-04-01T09:25:39.661Z,99850.12780707068
2024-04-01T09:28:37.152Z,99846.58034696101
2024-04-01T09:31:34.706Z,99847.50899581898
2024-04-01T09:34:33.251Z,99844.94550517786
2024-04-01T09:37:30.811Z,99832.19591150607
2024-04-01T09:40:28.376Z,99830.28696271591
2024-04-01T09:43:42.932Z,99828.86042188619
2024-04-01T09:46:45.438Z,99823.76553095623
2024-04-01T09:49:45.334Z,99802.22707032989
2024-04-01T09:56:08.998Z,99807.97153621163
2024-04-01T09:59:36.495Z,99802.02182025283
2024-04-01T10:03:02.030Z,99793.09970330076
2024-04-01T10:06:26.503Z,99791.74766322436
2024-04-01T10:10:05.364Z,99794.44645007956
2024-04-01T10:13:34.411Z,99777.0551827689
2024-04-01T10:16:53.902Z,99781.00646858786
2024-04-01T10:20:05.443Z,99782.4809625072
2024-04-01T10:23:38.931Z,99774.14015122315
2024-04-01T10:27:03.429Z,99773.65974456635
2024-04-01T10:30:41.846Z,99764.69109500773
2024-04-01T10:34:12.294Z,99758.78765820214
2024-04-01T10:37:31.794Z,99757.49343629014
2024-04-01T10:40:46.363Z,99754.91403956282
2024-04-01T10:44:24.807Z,99737.79305673958
2024-04-01T10:47:53.361Z,99723.96686601972
2024-04-01T10:51:14.789Z,99717.71294896716
2024-04-01T10:54:29.305Z,99730.28517453109
2024-04-01T10:57:56.769Z,99717.50904389418
2024-04-01T11:01:32.213Z,99711.39111964259
2024-04-01T11:04:58.714Z,99714.50783440647
2024-04-01T11:08:13.225Z,99697.6910290534
2024-04-01T11:11:32.504Z,99699.19123161287
2024-04-01T11:14:34.280Z,99688.78833956047
2024-04-01T11:17:34.807Z,99686.60411860002
2024-04-01T11:20:47.334Z,99683.76565795873
2024-04-01T11:24:03.858Z,99680.92520209467
2024-04-01T11:27:23.360Z,99672.30618091901
2024-04-01T11:30:35.854Z,99668.09137738256
2024-04-01T11:33:51.401Z,99658.62749255351
2024-04-01T11:37:00.925Z,99660.64552925035
2024-04-01T11:43:11.993Z,99649.99359303451
2024-04-01T11:46:13.566Z,99642.45062789583
2024-04-01T11:49:11.108Z,99644.62197916373
2024-04-01T11:52:13.599Z,99630.9762131683
2024-04-01T11:55:13.201Z,99631.35482583145
2024-04-01T11:58:12.747Z,99626.93728746743
2024-04-01T12:01:11.304Z,99608.55519303074
2024-04-01T12:04:18.829Z,99608.61344427722
2024-04-01T12:07:17.359Z,99593.55729144439
2024-04-01T12:10:15.951Z,99598.33117432677
2024-04-01T12:13:15.505Z,99596.45697977232
2024-04-01T12:16:14.068Z,99590.4582776326
2024-04-01T12:19:20.967Z,99594.98322782539
2024-04-01T12:22:20.099Z,99582.70644476631
2024-04-01T12:25:17.697Z,99580.64193914823
2024-04-01T12:28:17.217Z,99575.56149644815
2024-04-01T12:31:20.570Z,99573.15683540431
2024-04-01T12:34:21.316Z,99553.89317036128
2024-04-01T12:37:23.862Z,99551.40609357605
2024-04-01T12:40:25.425Z,99539.57071721813
2024-04-01T12:43:22.963Z,99551.90824773566
2024-04-01T12:46:20.546Z,99546.2901199539
2024-04-01T12:49:22.067Z,99538.28391746261
2024-04-01T12:52:26.596Z,99531.92040364261
2024-04-01T12:55:34.138Z,99525.28456156912
2024-04-01T12:58:47.698Z,99519.44130180967
2024-04-01T13:01:59.212Z,99514.4273246729
2024-04-01T13:05:13.700Z,99507.30324991548
2024-04-01T13:08:34.235Z,99503.57597890699
2024-04-01T13:11:45.741Z,99496.5136312795
2024-04-01T13:14:59.255Z,99493.27912656151
2024-04-01T13:18:12.776Z,99482.42952965721
2024-04-01T13:21:22.273Z,99486.83422733899
2024-04-01T13:24:28.808Z,99477.76982207103
2024-04-01T13:27:37.354Z,99474.04777158012
2024-04-01T13:30:48.860Z,99469.56863428342
2024-04-01T13:34:02.738Z,99459.60570630223
2024-04-01T13:37:11.921Z,99454.22050304714
2024-04-01T13:40:24.479Z,99448.75432664025
2024-04-01T13:43:36.954Z,99450.63523575528
2024-04-01T13:46:48.497Z,99444.27906891127
2024-04-01T13:50:04.001Z,99440.60229853181
2024-04-01T13:53:24.490Z,99442.92708387034
2024-04-01T13:56:35.196Z,99431.35559288722
2024-04-01T13:59:45.576Z,99436.04530233733
2024-04-01T14:02:54.064Z,99420.52563183432
2024-04-01T14:06:14.588Z,99415.91688628389
2024-04-01T14:09:25.094Z,99409.1845311383
2024-04-01T14:12:32.624Z,99407.1933385662
2024-04-01T14:15:35.221Z,99400.75462248674
2024-04-01T14:18:49.650Z,99399.93909203811
2024-04-01T14:21:47.180Z,99394.41104153063
2024-04-01T14:24:57.752Z,99392.33152777018
2024-04-01T14:27:55.307Z,99392.81651113043
2024-04-01T14:30:52.861Z,99391.70549963524
2024-04-01T14:33:51.409Z,99392.0307389701
2024-04-01T14:36:48.971Z,99383.41000260304
2024-04-01T14:39:52.525Z,99370.56012385066
2024-04-01T14:42:50.085Z,99367.21805083868
2024-04-01T14:45:48.609Z,99363.50269856819
2024-04-01T14:48:47.195Z,99357.27071575214
2024-04-01T14:51:45.757Z,99349.89971613481
2024-04-01T14:54:44.299Z,99344.7648786162
2024-04-01T14:57:43.889Z,99347.31051531696
2024-04-01T15:00:43.395Z,99344.17424978859
2024-04-01T15:03:41.954Z,99344.03015886345
2024-04-01T15:06:39.496Z,99336.22301725122
2024-04-01T15:09:43.061Z,99335.46590723285
2024-04-01T15:12:40.596Z,99326.31058374832
2024-04-01T15:15:40.174Z,99327.90561007475
2024-04-01T15:18:37.708Z,99326.75536432496
2024-04-01T15:21:36.296Z,99324.19739541429
2024-04-01T15:24:34.815Z,99316.95556078822
2024-04-01T15:27:32.348Z,99308.84350126475
2024-04-01T15:30:31.927Z,99305.48171692784
2024-04-01T15:33:30.474Z,99301.33784102472
2024-04-01T15:36:28.039Z,99297.55532181417
2024-04-01T15:39:25.635Z,99287.64960957432
2024-04-01T15:42:23.179Z,99285.59919784188
2024-04-01T15:45:20.710Z,99279.97165014606
2024-04-01T15:48:20.286Z,99277.42025874888
2024-04-01T15:51:18.804Z,99281.50442902443
2024-04-01T15:54:17.378Z,99280.29413931513
2024-04-01T15:57:15.932Z,99271.71268703739
2024-04-01T16:00:19.500Z,99262.67137756565
2024-04-01T16:03:19.024Z,99264.359364057
2024-04-01T16:06:17.587Z,99265.76858447651
2024-04-01T16:09:16.175Z,99265.87395052159
2024-04-01T16:12:16.659Z,99261.60281384611
2024-04-01T16:15:15.230Z,99253.79050656213
2024-04-01T16:18:14.777Z,99246.9363482514
2024-04-01T16:21:16.321Z,99253.65476538897
2024-04-01T16:24:15.900Z,99241.47801817035
2024-04-01T16:27:19.599Z,99228.44602231205
2024-04-01T16:30:21.982Z,99231.23670720235
2024-04-01T16:33:20.498Z,99233.47766128374
2024-04-01T16:36:34.866Z,99234.02992706976
2024-04-01T16:39:32.591Z,99226.29190195208
2024-04-01T16:42:33.487Z,99228.4909810188
2024-04-01T16:45:32.019Z,99217.98631018671
2024-04-01T16:48:30.244Z,99208.01130512635
2024-04-01T16:51:28.799Z,99212.53089694015
2024-04-01T16:54:29.348Z,99206.92214542434
2024-04-01T16:57:28.906Z,99205.61963337343
2024-04-01T17:00:26.497Z,99195.26035921797
2024-04-01T17:03:24.970Z,99188.29670886733
2024-04-01T17:06:24.559Z,99187.88814912028
2024-04-01T17:09:31.110Z,99183.98924736278
2024-04-01T17:12:29.708Z,99186.27606674787
2024-04-01T17:15:29.194Z,99184.16128528284
2024-04-01T17:18:27.768Z,99182.54070374632
2024-04-01T17:21:27.302Z,99183.02736603099
2024-04-01T17:24:24.863Z,99177.84555002037
2024-04-01T17:27:23.403Z,99171.28044905214
2024-04-01T17:30:22.994Z,99173.49568697858
2024-04-01T17:33:23.537Z,99164.78460714463
2024-04-01T17:36:21.085Z,99161.31073292937
2024-04-01T17:39:28.608Z,99167.07486892384
2024-04-01T17:42:27.214Z,99161.01509440581
2024-04-01T17:45:29.726Z,99161.60921807667
2024-04-01T17:48:31.307Z,99156.01626972138
2024-04-01T17:51:29.815Z,99149.58524727594
2024-04-01T17:54:28.356Z,99153.61471990173
2024-04-01T17:57:25.927Z,99158.05039410625
2024-04-01T18:00:28.511Z,99156.72499674198
2024-04-01T18:03:33.011Z,99161.14638276091
2024-04-01T18:06:42.687Z,99161.22884822535
2024-04-01T18:09:42.078Z,99159.12032731366
2024-04-01T18:12:40.659Z,99163.93433553963
2024-04-01T18:15:38.159Z,99170.9338893049
2024-04-01T18:18:37.706Z,99166.60983337362
2024-04-01T18:21:36.303Z,99160.97786613875
2024-04-01T18:24:34.833Z,99166.21239606926
2024-04-01T18:27:38.362Z,99157.06126292278
2024-04-01T18:30:39.379Z,99149.19714611841
2024-04-01T18:33:42.469Z,99148.73614267493
2024-04-01T18:36:51.493Z,99145.67015348603
2024-04-01T18:39:50.540Z,99137.82576700096
2024-04-01T18:42:54.105Z,99141.29813414118
2024-04-01T18:45:57.639Z,99142.59693804139
2024-04-01T18:49:04.165Z,99145.21036786734
2024-04-01T18:52:09.722Z,99143.90099993964
2024-04-01T18:55:11.236Z,99148.25061165709
2024-04-01T18:58:13.808Z,99137.38597425346
2024-04-01T19:01:20.616Z,99150.88201962937
2024-04-01T19:04:21.879Z,99146.57285732418
2024-04-01T19:07:26.420Z,99152.26475198328
2024-04-01T19:10:28.255Z,99153.57081204356
2024-04-01T19:13:27.536Z,99152.70987798387
2024-04-01T19:16:25.100Z,99153.14045941376
2024-04-01T19:19:28.474Z,99152.27076332824
2024-04-01T19:22:28.154Z,99152.71651477393
2024-04-01T19:25:25.726Z,99142.7159586863
2024-04-01T19:28:23.372Z,99140.10448789435
2024-04-01T19:31:28.852Z,99141.85185173224
2024-04-01T19:34:28.688Z,99138.80460932916
2024-04-01T19:37:32.919Z,99143.59730009643
2024-04-01T19:40:35.451Z,99135.32798931324
2024-04-01T19:43:34.034Z,99130.53706012401
2024-04-01T19:46:35.554Z,99127.50811758789
2024-04-01T19:49:33.121Z,99128.3847454145
2024-04-01T19:52:34.956Z,99129.69199886425
2024-04-01T19:55:37.216Z,99122.26546829908
2024-04-01T19:58:38.749Z,99123.57162452994
2024-04-01T20:05:09.796Z,99117.48217787969
2024-04-01T20:08:15.361Z,99103.12966654189
2024-04-01T20:11:17.848Z,99107.04738099132
2024-04-01T20:14:17.401Z,99105.30443386563
2024-04-01T20:17:25.462Z,99091.84289404677
2024-04-01T20:20:32.463Z,99096.6200227098
2024-04-01T20:23:32.031Z,99091.3877846438
2024-04-01T20:26:31.766Z,99082.69287146434
2024-04-01T20:29:36.091Z,99084.43666997364
2024-04-01T20:32:40.939Z,99080.9554979068
2024-04-01T20:35:43.550Z,99076.17420996187
2024-04-01T20:38:41.734Z,99070.09029897388
2024-04-01T20:41:50.625Z,99079.66305146599
2024-04-01T20:44:48.875Z,99078.76599348795
2024-04-01T20:47:48.383Z,99077.90218995717
2024-04-01T20:54:21.895Z,99060.94746128801
2024-04-01T20:57:18.978Z,99055.29605088691
2024-04-01T21:00:29.498Z,99050.07883729217
2024-04-01T21:03:29.016Z,99047.03756279901
2024-04-01T21:06:31.588Z,99032.6776076559
2024-04-01T21:09:34.109Z,99030.06371708504
2024-04-01T21:12:31.667Z,99023.09026263928
2024-04-01T21:15:29.216Z,99003.94522089747
2024-04-01T21:18:27.838Z,98997.44593136015
2024-04-01T21:21:25.375Z,98991.36282397169
2024-04-01T21:24:23.892Z,98995.71277368187
2024-04-01T21:27:25.465Z,98990.50132021696
2024-04-01T21:30:23.992Z,99004.86398911757
2024-04-01T21:33:21.575Z,99002.26534045397
2024-04-01T21:36:19.107Z,99002.30865219072
2024-04-01T21:39:16.686Z,98996.65983812409
2024-04-01T21:42:14.213Z,98983.18788822969
2024-04-01T21:45:12.798Z,98971.45656589896
2024-04-01T21:48:12.336Z,98973.62821603467
2024-04-01T21:51:09.919Z,98970.15234889436
2024-04-01T21:54:07.449Z,98971.02164224483
2024-04-01T21:57:04.991Z,98958.42128757306
2024-04-01T22:00:08.674Z,98957.9872810587
2024-04-01T22:03:08.082Z,98959.29076084628
2024-04-01T22:06:10.132Z,98956.21536499403
2024-04-01T22:09:09.191Z,98938.83875970513
2024-04-01T22:12:07.763Z,98924.52977725034
2024-04-01T22:15:05.286Z,98914.07884119987
2024-04-01T22:18:02.875Z,98924.01312901365
2024-04-01T22:21:01.410Z,98920.47356893004
2024-04-01T22:23:59.976Z,98916.0972046286
2024-04-01T22:26:59.531Z,98906.51789928667
2024-04-01T22:30:00.139Z,98898.20203660357
2024-04-01T22:32:57.697Z,98911.6345670216
2024-04-01T22:35:56.374Z,98915.14303493599
2024-04-01T22:38:53.765Z,98902.60587132166
2024-04-01T22:41:51.305Z,98907.39447516314
2024-04-01T22:44:50.871Z,98918.33203620896
2024-04-01T22:47:49.420Z,98922.32618805052
2024-04-01T22:50:47.955Z,98914.95444339137
2024-04-01T22:53:45.526Z,98915.83119678187
2024-04-01T22:56:43.079Z,98934.49013118818
2024-04-01T22:59:40.611Z,98943.57044183259
2024-04-01T23:02:38.194Z,98943.12011930495
2024-04-01T23:05:36.727Z,98942.24091229615
2024-04-01T23:08:34.315Z,98947.9018949833
2024-04-01T23:11:32.880Z,98956.65296015945
2024-04-01T23:14:33.677Z,98950.14266012442
2024-04-01T23:17:32.951Z,98954.92840235647
2024-04-01T23:20:30.545Z,98964.06894385983
2024-04-01T23:23:30.085Z,98989.26947947644
2024-04-01T23:26:31.963Z,99105.66414228968
2024-04-01T23:29:29.163Z,99136.66764030936
2024-04-01T23:32:26.737Z,99146.45736872859
2024-04-01T23:35:24.290Z,99147.51590949945
2024-04-01T23:38:21.828Z,99165.99155021065
2024-04-01T23:41:19.737Z,99161.12488781268
2024-04-01T23:44:17.965Z,99178.45447570799
2024-04-01T23:47:15.484Z,99219.3754065162
2024-04-01T23:50:13.065Z,99229.33881840558
2024-04-01T23:53:12.738Z,99241.18415954155
2024-04-01T23:56:12.163Z,99243.5440108797
2024-04-01T23:59:10.949Z,99269.49971646744
